Latest Coastal Weather Observations for Carnarvon

IDW60701

Issued at 1:55 am WST Friday 22 August 2014 (issued every 10 minutes, with the page automatically refreshed every 10 minutes)

About coastal observations | Map of coastal stations | Coastal observations for WA | Marine services | Other Formats
Station Details ID: 006011 Name: CARNARVON AIRPORT Lat: -24.89 Lon: 113.67 Height: 4.0 m
Data from the previous 72 hours. | See also: Recent months at Carnarvon
Date/Time
WST
Temp

°C
Wind Pressure Rain
since 9am
mm
Weather Cloud Vis
km
Sea
Height
m
Swell
Dir
 
Speed
knots
Gust
knots
hPa Trend Height
m
Period
s
Dir
22/01:30am 19.5 SSE 7 9 1018.4 - 0.2 - Cloudy 10 - - - -
22/01:00am 17.9 SSE 5 6 1018.4 - 0.2 - Cloudy 10 - - - -
22/12:30am 17.5 SE 5 6 1018.1 - 0.2 - Partly cloudy 10 - - - -
22/12:00am 17.3 SSE 5 6 1018.2 - 0.2 - Cloudy 10 - - - -
 
Date/Time
WST
Temp

°C
Wind Pressure Rain
since 9am
mm
Weather Cloud Vis
km
Sea
Height
m
Swell
Dir
 
Speed
knots
Gust
knots
hPa Trend Height
m
Period
s
Dir
21/11:30pm 17.1 SSE 5 5 1018.3 - 0.2 - Partly cloudy 10 - - - -
21/11:00pm 16.4 CALM 0 0 1018.3 - 0.2 - - 10 - - - -
21/10:30pm 16.3 CALM 0 0 1018.3 - 0.2 - Partly cloudy 10 - - - -
21/10:00pm 17.4 CALM 0 0 1018.3 - 0.2 - - 10 - - - -
21/09:30pm 18.2 CALM 0 0 1018.2 - 0.2 - - 10 - - - -
21/09:00pm 18.1 NE 2 4 1018.2 - 0.2 - Cloudy 10 - - - -
21/08:30pm 19.0 WNW 2 3 1018.2 - 0.2 - Cloudy 10 - - - -
21/08:00pm 19.6 WNW 1 3 1018.0 - 0.2 - Partly cloudy 10 - - - -
21/07:30pm 19.7 WNW 4 4 1017.6 - 0.2 - Partly cloudy 10 - - - -
21/07:00pm 20.5 W 3 4 1017.3 - 0.2 - Partly cloudy 10 - - - -
21/06:30pm 20.8 W 4 4 1016.9 - 0.2 - Partly cloudy 10 - - - -
21/06:00pm 21.4 WNW 6 7 1016.6 - 0.2 - Cloudy 10 - - - -
21/05:30pm 21.9 W 10 12 1016.5 - 0.2 - Partly cloudy 10 - - - -
21/05:00pm 23.2 NW 9 11 1016.0 - 0.2 - Partly cloudy 10 - - - -
21/04:30pm 22.1 NW 11 14 1015.9 - 0.2 - Partly cloudy 10 - - - -
21/04:00pm 21.7 WNW 9 11 1015.8 - 0.2 - Partly cloudy 10 - - - -
21/03:30pm 20.7 WSW 11 15 1015.6 - 0.0 - Partly cloudy 10 - - - -
21/03:00pm 22.7 W 10 13 1015.5 R 0.0 Distant precip. Mostly cloudy 25 - - - -
21/02:30pm 23.4 WNW 12 15 1015.5 - 0.0 - Mostly clear 10 - - - -
21/02:00pm 23.7 WNW 15 20 1015.4 - 0.0 - Mostly clear 10 - - - -
21/01:30pm 25.1 WNW 13 18 1015.5 - 0.0 - Mostly clear 10 - - - -
21/01:00pm 25.4 WNW 12 15 1015.8 - 0.0 - Partly cloudy 10 - - - -
21/12:30pm 26.7 WNW 10 15 1016.0 - 0.0 - Mostly clear 10 - - - -
21/12:00pm 24.5 NW 11 14 1016.3 S 0.0 Distant precip. Partly cloudy 35 - - - -
21/11:30am 24.7 NW 10 14 1016.6 - 0.0 - Mostly clear 10 - - - -
21/11:00am 25.2 NW 10 14 1016.9 - 0.0 - Mostly clear 10 - - - -
21/10:30am 24.7 NNW 10 14 1017.0 - 0.0 - Mostly clear 10 - - - -
21/10:00am 23.4 N 11 13 1017.1 - 0.0 - Mostly clear 10 - - - -
21/09:30am 22.7 N 11 13 1017.2 - 0.0 - - 10 - - - -
21/09:00am 20.7 N 12 14 1017.0 S 0.0 Distant precip. Mostly clear 40 - - - -
21/08:30am 19.4 NNE 9 11 1016.9 - 0.0 - Mostly clear 10 - - - -
21/08:00am 17.3 NNE 8 11 1016.6 - 0.0 - Mostly clear 10 - - - -
21/07:30am 15.6 NNE 8 9 1016.4 - 0.0 - Mostly clear 10 - - - -
21/07:00am 14.1 NNE 7 9 1016.2 - 0.0 - Mostly clear 10 - - - -
21/06:30am 13.7 NNE 7 9 1015.8 - 0.0 - - 10 - - - -
21/06:00am 13.6 NNE 7 8 1015.7 F 0.0 Fine Mostly clear 40 - - - -
21/05:30am 14.1 NNE 6 7 1015.5 - 0.0 - - 10 - - - -
21/05:00am 14.0 NNE 7 8 1015.1 - 0.0 - - 10 - - - -
21/04:30am 13.9 NNE 7 8 1015.2 - 0.0 - - 10 - - - -
21/04:00am 13.6 NNE 6 7 1015.1 - 0.0 - - 10 - - - -
21/03:30am 13.5 NNE 6 7 1015.3 - 0.0 - - 10 - - - -
21/03:00am 13.3 NNE 7 8 1015.4 - 0.0 - - 10 - - - -
21/02:30am 13.2 NNE 5 6 1015.6 - 0.0 - - 10 - - - -
21/02:00am 13.4 NNE 4 5 1015.8 - 0.0 - - 10 - - - -
21/01:30am 13.8 NE 4 4 1016.1 - 0.0 - - 10 - - - -
21/01:00am 13.7 NE 4 5 1016.2 - 0.0 - - 10 - - - -
21/12:30am 14.1 NE 3 3 1016.4 - 0.0 - - 10 - - - -
21/12:00am 14.2 NE 3 4 1016.5 - 0.0 - - 10 - - - -
 
Date/Time
WST
Temp

°C
Wind Pressure Rain
since 9am
mm
Weather Cloud Vis
km
Sea
Height
m
Swell
Dir
 
Speed
knots
Gust
knots
hPa Trend Height
m
Period
s
Dir
20/11:30pm 14.6 NE 3 4 1016.8 - 0.0 - - 10 - - - -
20/11:00pm 13.3 NE 4 5 1017.0 - 0.0 - - 10 - - - -
20/10:30pm 13.8 CALM 0 0 1017.3 - 0.0 - - 10 - - - -
20/10:00pm 14.2 WSW 1 3 1017.3 - 0.0 - - 10 - - - -
20/09:30pm 15.3 SW 4 4 1017.3 - 0.0 - - 10 - - - -
20/09:00pm 17.5 SW 4 5 1017.3 - 0.0 - - 10 - - - -
20/08:30pm 18.2 SW 5 7 1017.2 - 0.0 - - 10 - - - -
20/08:00pm 18.6 WSW 6 7 1017.0 - 0.0 - - 10 - - - -
20/07:30pm 19.2 WSW 6 8 1016.9 - 0.0 - - 10 - - - -
20/07:00pm 18.9 W 7 10 1016.7 - 0.0 - - 10 - - - -
20/06:30pm 18.9 SW 3 4 1016.2 - 0.0 - - 10 - - - -
20/06:00pm 20.0 SSW 5 6 1016.3 - 0.0 - - 10 - - - -
20/05:30pm 20.4 SW 7 9 1016.3 - 0.0 - - 10 - - - -
20/05:00pm 21.2 SW 9 11 1016.1 - 0.0 - - 10 - - - -
20/04:30pm 21.0 SW 10 13 1016.1 - 0.0 - - 10 - - - -
20/04:00pm 21.6 SW 10 12 1016.0 - 0.0 - - 10 - - - -
20/03:30pm 22.1 SW 10 14 1016.0 - 0.0 - - 10 - - - -
20/03:00pm 21.5 WSW 11 14 1016.0 R 0.0 Fine Mostly clear 35 - - - -
20/02:30pm 21.6 WSW 10 14 1016.1 - 0.0 - Mostly clear 10 - - - -
20/02:00pm 21.4 WSW 11 16 1016.5 - 0.0 - Mostly clear 10 - - - -
20/01:30pm 21.8 WSW 11 15 1016.7 - 0.0 - Mostly clear 10 - - - -
20/01:00pm 21.6 WSW 11 15 1017.0 - 0.0 - - 10 - - - -
20/12:30pm 21.4 WSW 10 13 1017.4 - 0.0 - Mostly clear 10 - - - -
20/12:00pm 21.4 WSW 9 14 1017.8 F 0.0 Fine Mostly clear 40 - - - -
20/11:30am 21.1 WSW 7 11 1018.1 - 0.0 - Mostly clear 10 - - - -
20/11:00am 20.9 WNW 5 10 1018.6 - 0.0 - Mostly clear 10 - - - -
20/10:30am 20.7 NNW 5 8 1018.9 - 0.0 - Mostly clear 10 - - - -
20/10:00am 21.0 NE 6 9 1018.9 - 0.0 - Mostly clear 10 - - - -
20/09:30am 20.7 NE 8 11 1018.9 - 0.0 - - 10 - - - -
20/09:00am 19.4 ENE 9 12 1019.0 F 0.0 Fine Mostly clear 40 - - - -
20/08:30am 18.0 ENE 9 12 1018.9 - 0.0 - Mostly clear 10 - - - -
20/08:00am 15.8 ENE 8 11 1018.9 - 0.0 - Mostly clear 10 - - - -
20/07:30am 12.7 ENE 7 9 1018.5 - 0.0 - Mostly clear 10 - - - -
20/07:00am 10.9 ENE 6 6 1018.7 - 0.0 - Partly cloudy 10 - - - -
20/06:30am 10.8 ENE 4 5 1018.3 - 0.0 - - 10 - - - -
20/06:00am 10.6 E 4 5 1017.9 F 0.0 Fine Mostly clear 40 - - - -
20/05:30am 10.6 ENE 6 7 1017.8 - 0.0 - - 10 - - - -
20/05:00am 11.2 E 8 8 1017.6 - 0.0 - - 10 - - - -
20/04:30am 11.1 E 5 6 1017.7 - 0.0 - Partly cloudy 10 - - - -
20/04:00am 11.5 ESE 4 5 1018.0 - 0.0 - Partly cloudy 10 - - - -
20/03:30am 11.1 ESE 6 7 1018.2 - 0.0 - - 10 - - - -
20/03:00am 12.6 SE 5 6 1018.3 - 0.0 - - 10 - - - -
20/02:30am 12.0 ESE 8 8 1018.2 - 0.0 - - 10 - - - -
20/02:00am 12.7 SE 6 7 1018.6 - 0.0 - Partly cloudy 10 - - - -
20/01:30am 14.4 SE 5 6 1018.8 - 0.0 - - 10 - - - -
20/01:00am 17.7 SSW 7 10 1019.0 - 0.0 - - 10 - - - -
20/12:30am 17.8 SSW 7 9 1019.2 - 0.0 - - 10 - - - -
20/12:00am 17.4 SSW 7 8 1019.3 - 0.0 - - 10 - - - -
 
Date/Time
WST
Temp

°C
Wind Pressure Rain
since 9am
mm
Weather Cloud Vis
km
Sea
Height
m
Swell
Dir
 
Speed
knots
Gust
knots
hPa Trend Height
m
Period
s
Dir
19/11:30pm 17.9 S 8 9 1019.2 - 0.0 - - 10 - - - -
19/11:00pm 18.0 S 8 10 1019.2 - 0.0 - - 10 - - - -
19/10:30pm 18.6 SSW 9 11 1019.3 - 0.0 - - 10 - - - -
19/10:00pm 18.9 SSW 10 13 1019.3 - 0.0 - - 10 - - - -
19/09:30pm 18.7 S 10 14 1019.3 - 0.0 - - 10 - - - -
19/09:00pm 18.8 SSW 10 12 1019.4 - 0.0 - - 10 - - - -
19/08:30pm 18.9 SSW 10 13 1019.5 - 0.0 - - 10 - - - -
19/08:00pm 18.7 SW 10 13 1019.2 - 0.0 - - 10 - - - -
19/07:30pm 18.3 SW 8 10 1019.1 - 0.0 - - 10 - - - -
19/07:00pm 18.7 SW 8 11 1019.0 - 0.0 - - 10 - - - -
19/06:30pm 19.0 SW 9 11 1018.7 - 0.0 - - 10 - - - -
19/06:00pm 19.5 SW 11 14 1018.6 - 0.0 - - 10 - - - -
19/05:30pm 20.4 SW 11 15 1018.5 - 0.0 - - 10 - - - -
19/05:00pm 20.8 SW 11 15 1018.4 - 0.0 - - 10 - - - -
19/04:30pm 21.2 SW 11 14 1018.5 - 0.0 - - 10 - - - -
19/04:00pm 21.5 SW 11 14 1018.6 - 0.0 - - 10 - - - -
19/03:30pm 21.8 SW 11 14 1018.7 - 0.0 - - 10 - - - -
19/03:00pm 21.5 SSW 12 15 1018.7 - 0.0 - - 10 - - - -
19/02:30pm 21.6 SSW 11 13 1018.9 - 0.0 - - 10 - - - -
19/02:00pm 21.3 SSW 11 14 1019.1 - 0.0 - - 10 - - - -
19/01:30pm 21.4 SSW 11 14 1019.4 - 0.0 - - 10 - - - -
19/01:00pm 21.1 SSW 11 14 1019.8 - 0.0 - - 10 - - - -
19/12:30pm 21.2 SSW 11 14 1020.3 - 0.0 - - 10 - - - -
19/12:00pm 21.8 SSW 12 15 1020.8 - 0.0 - - 10 - - - -
19/11:30am 21.7 SSW 11 13 1021.0 - 0.0 - Partly cloudy 10 - - - -
19/11:00am 21.3 SSW 8 10 1021.4 - 0.0 - - 10 - - - -
19/10:30am 21.1 S 7 9 1021.7 - 0.0 - - 10 - - - -
19/10:00am 20.4 S 5 9 1021.9 - 0.0 - Partly cloudy 10 - - - -
19/09:30am 20.4 E 5 8 1021.8 - 0.0 - - 10 - - - -
19/09:00am 19.5 ENE 6 8 1021.7 - 0.0 - - 10 - - - -
19/08:30am 18.2 ENE 4 6 1021.7 - 0.0 - - 10 - - - -
19/08:00am 15.6 ENE 4 5 1021.4 - 0.0 - Partly cloudy 10 - - - -
19/07:30am 12.4 NE 4 5 1021.0 - 0.0 - - 10 - - - -
19/07:00am 10.5 E 6 7 1020.9 - 0.0 - - 10 - - - -
19/06:30am 10.8 ENE 6 7 1020.8 - 0.0 - - 10 - - - -
19/06:00am 10.2 E 6 7 1020.6 - 0.0 - - 10 - - - -
19/05:30am 10.7 E 6 7 1020.3 - 0.0 - - 10 - - - -
19/05:00am 10.9 E 5 7 1020.1 - 0.0 - - 10 - - - -
19/04:30am 12.0 SE 5 5 1020.0 - 0.0 - - 10 - - - -
19/04:00am 12.1 SE 6 7 1020.0 - 0.0 - - 10 - - - -
19/03:30am 12.4 SE 5 5 1020.1 - 0.0 - - 10 - - - -
19/03:00am 13.0 SSE 7 8 1020.2 - 0.0 - - 10 - - - -
19/02:30am 12.8 ESE 5 5 1020.3 - 0.0 - - 10 - - - -
19/02:00am 14.9 SSE 8 9 1020.4 - 0.0 - - 10 - - - -

Other Formats:

Comma delimited format used in spreadsheet applications
http://www.bom.gov.au/fwo/IDW60701/IDW60701.94300.axf

JavaScript Object Notation format (JSON) in row-major order
http://www.bom.gov.au/fwo/IDW60701/IDW60701.94300.json